Time;durP1;ratioP1;P1;durP2;ratioP2;P2;SDS_P1;SDS_P2;PMS_P1;PMS_P2;Temp;Humidity;BMP_temperature;BMP_pressure;BME280_temperature;BME280_humidity;BME280_pressure;Samples;Min_cycle;Max_cycle;Signal;HPM_P1;HPM_P2
2022/10/25 00:00:55;;;;;;;1.97;1.17;;;9.90;99.90;;;;;;5071854;28;20427;-69
2022/10/25 00:03:21;;;;;;;2.60;1.20;;;9.90;99.90;;;;;;5071573;28;20669;-69
2022/10/25 00:05:46;;;;;;;1.37;0.80;;;9.80;99.90;;;;;;5071727;28;20189;-69
2022/10/25 00:08:12;;;;;;;2.20;1.30;;;9.80;99.90;;;;;;5071711;28;20295;-69
2022/10/25 00:10:38;;;;;;;1.90;0.87;;;9.70;99.90;;;;;;5071838;28;20173;-69
2022/10/25 00:13:04;;;;;;;2.87;1.20;;;9.70;99.90;;;;;;5070871;28;20269;-69
2022/10/25 00:15:30;;;;;;;5.57;0.87;;;9.70;99.90;;;;;;5066017;28;20177;-69
2022/10/25 00:17:55;;;;;;;2.07;0.90;;;9.70;99.90;;;;;;5066232;28;20955;-69
2022/10/25 00:20:21;;;;;;;2.77;1.00;;;9.60;99.90;;;;;;5071687;28;20203;-69
2022/10/25 00:22:47;;;;;;;5.10;1.47;;;9.60;99.90;;;;;;5071222;28;20398;-69
2022/10/25 00:25:13;;;;;;;1.70;1.00;;;9.60;99.90;;;;;;5071259;28;20177;-69
2022/10/25 00:27:38;;;;;;;2.10;0.90;;;9.50;99.90;;;;;;5070922;28;20245;-69
2022/10/25 00:30:05;;;;;;;2.53;1.07;;;9.50;99.90;;;;;;5071766;28;20197;-69
2022/10/25 00:32:32;;;;;;;1.80;0.90;;;9.50;99.90;;;;;;5070863;28;20527;-69
2022/10/25 00:34:58;;;;;;;1.70;0.83;;;9.50;99.90;;;;;;5071863;28;20411;-69
2022/10/25 00:37:23;;;;;;;1.90;0.90;;;9.50;99.90;;;;;;5071408;28;20758;-69
2022/10/25 00:39:49;;;;;;;1.83;0.73;;;9.50;99.90;;;;;;5067111;28;20177;-69
2022/10/25 00:42:23;;;;;;;5.00;1.40;;;9.60;99.90;;;;;;5069910;28;20204;-69
2022/10/25 00:44:53;;;;;;;3.40;1.33;;;9.60;99.90;;;;;;5041219;28;20185;-69
2022/10/25 00:47:18;;;;;;;2.60;1.20;;;9.60;99.90;;;;;;5071029;28;21116;-67
2022/10/25 00:49:48;;;;;;;3.13;1.10;;;9.70;99.90;;;;;;5071482;28;20446;-67
2022/10/25 00:52:14;;;;;;;2.60;1.27;;;9.70;99.90;;;;;;5070956;28;20226;-67
2022/10/25 00:54:47;;;;;;;2.33;1.10;;;9.70;99.90;;;;;;5071901;28;20770;-67
2022/10/25 00:57:37;;;;;;;3.63;1.20;;;9.80;99.90;;;;;;5070908;28;20789;-67
2022/10/25 01:00:05;;;;;;;1.97;0.80;;;9.80;99.90;;;;;;5071141;28;20423;-66
2022/10/25 01:02:30;;;;;;;3.57;1.37;;;9.70;99.90;;;;;;5070442;28;20455;-67
2022/10/25 01:04:57;;;;;;;2.10;1.23;;;9.70;99.90;;;;;;5068288;28;20458;-67
2022/10/25 01:07:22;;;;;;;1.83;1.03;;;9.70;99.90;;;;;;5063084;28;20696;-67
2022/10/25 01:09:50;;;;;;;2.80;1.70;;;9.70;99.90;;;;;;5071472;28;20450;-67
2022/10/25 01:12:16;;;;;;;4.23;1.87;;;9.70;99.90;;;;;;5070718;28;20244;-67
2022/10/25 01:14:47;;;;;;;2.10;1.20;;;9.80;99.90;;;;;;5071508;28;20952;-67
2022/10/25 01:17:33;;;;;;;3.10;1.20;;;9.80;99.90;;;;;;5073147;28;20524;-66
2022/10/25 01:20:26;;;;;;;2.23;1.20;;;9.80;99.90;;;;;;5064865;28;20499;-67
2022/10/25 01:22:58;;;;;;;2.60;1.20;;;9.80;99.90;;;;;;5073178;28;20469;-66
2022/10/25 01:25:59;;;;;;;5.47;1.53;;;9.90;99.90;;;;;;5074360;28;20902;-67
2022/10/25 01:28:54;;;;;;;2.03;1.13;;;9.90;99.90;;;;;;5065751;28;20455;-66
2022/10/25 01:31:41;;;;;;;2.33;1.10;;;10.00;99.90;;;;;;5074584;28;20524;-66
2022/10/25 01:34:16;;;;;;;1.97;0.90;;;9.90;99.90;;;;;;5074968;28;20410;-66
2022/10/25 01:36:56;;;;;;;2.57;1.30;;;9.90;99.90;;;;;;5074622;28;20411;-66
2022/10/25 01:39:48;;;;;;;4.40;1.50;;;10.00;99.90;;;;;;5070113;28;20418;-66
2022/10/25 01:42:34;;;;;;;6.20;1.50;;;10.00;99.90;;;;;;5072959;28;20946;-66
2022/10/25 01:45:20;;;;;;;3.00;1.83;;;10.00;99.90;;;;;;5074646;28;20446;-66
2022/10/25 01:48:00;;;;;;;3.87;1.70;;;9.90;99.90;;;;;;5074211;28;20882;-67
2022/10/25 01:50:31;;;;;;;3.20;1.20;;;9.90;99.90;;;;;;5074116;28;20423;-66
2022/10/25 01:52:57;;;;;;;3.03;1.33;;;9.90;99.90;;;;;;5074044;28;20441;-66
2022/10/25 01:55:30;;;;;;;3.83;1.40;;;9.90;99.90;;;;;;5074194;28;20950;-66
2022/10/25 01:58:33;;;;;;;2.13;0.90;;;9.90;99.90;;;;;;5073805;28;20188;-66
2022/10/25 02:01:10;;;;;;;4.10;1.23;;;10.00;99.90;;;;;;5074437;28;20431;-66
2022/10/25 02:04:02;;;;;;;3.80;1.10;;;10.10;99.90;;;;;;5073659;28;20419;-66
2022/10/25 02:06:56;;;;;;;6.33;1.87;;;10.10;99.90;;;;;;5045391;28;20436;-66
2022/10/25 02:09:31;;;;;;;3.20;1.37;;;10.10;99.90;;;;;;5074007;28;20836;-66
2022/10/25 02:11:59;;;;;;;2.87;1.53;;;10.10;99.90;;;;;;5073199;28;20510;-66
2022/10/25 02:14:39;;;;;;;1.97;1.40;;;10.20;99.90;;;;;;5074050;28;20415;-66
2022/10/25 02:17:08;;;;;;;3.37;1.30;;;10.20;99.90;;;;;;5073557;28;20438;-66
2022/10/25 02:19:38;;;;;;;7.10;1.20;;;10.20;99.90;;;;;;5073632;28;20435;-66
2022/10/25 02:22:07;;;;;;;4.90;1.83;;;10.20;99.90;;;;;;5073401;28;20766;-66
2022/10/25 02:24:35;;;;;;;2.70;1.50;;;10.20;99.90;;;;;;5073211;28;20416;-66
2022/10/25 02:27:03;;;;;;;3.33;1.60;;;10.20;99.90;;;;;;5072938;28;20447;-66
2022/10/25 02:29:31;;;;;;;3.20;1.27;;;10.20;99.90;;;;;;5073519;28;20445;-66
2022/10/25 02:31:58;;;;;;;3.77;1.40;;;10.20;99.90;;;;;;5073160;28;20431;-66
2022/10/25 02:34:23;;;;;;;2.33;1.40;;;10.20;99.90;;;;;;5073707;28;20423;-66
2022/10/25 02:36:52;;;;;;;2.03;1.20;;;10.20;99.90;;;;;;5073418;28;20411;-66
2022/10/25 02:39:20;;;;;;;4.07;1.60;;;10.30;99.90;;;;;;5068778;28;20185;-66
2022/10/25 02:45:30;;;;;;;3.00;1.40;;;10.20;99.90;;;;;;5068922;28;20405;-66
2022/10/25 02:47:56;;;;;;;1.70;0.80;;;10.20;99.90;;;;;;5072760;28;20944;-66
2022/10/25 02:50:21;;;;;;;2.47;1.77;;;10.20;99.90;;;;;;5070311;28;20557;-66
2022/10/25 02:52:47;;;;;;;1.57;0.97;;;10.30;99.90;;;;;;5072690;28;20549;-66
2022/10/25 02:55:12;;;;;;;8.20;1.60;;;10.20;99.90;;;;;;5073423;28;20252;-66
2022/10/25 02:57:38;;;;;;;2.27;1.00;;;10.20;99.90;;;;;;5072888;28;20559;-66
2022/10/25 03:00:05;;;;;;;1.27;0.70;;;10.20;99.90;;;;;;5073066;28;20295;-66
2022/10/25 03:02:31;;;;;;;2.03;1.17;;;10.10;99.90;;;;;;5072409;28;20230;-66
2022/10/25 03:04:57;;;;;;;2.80;1.23;;;10.10;99.90;;;;;;5072903;28;20495;-66
2022/10/25 03:07:22;;;;;;;1.70;1.00;;;10.10;99.90;;;;;;5072984;28;20537;-66
2022/10/25 03:09:48;;;;;;;4.03;1.33;;;10.00;99.90;;;;;;5072883;28;20188;-66
2022/10/25 03:12:13;;;;;;;2.50;1.23;;;10.00;99.90;;;;;;5072167;28;20600;-66
2022/10/25 03:14:39;;;;;;;4.00;1.40;;;10.00;99.90;;;;;;5073046;28;20231;-66
2022/10/25 03:17:06;;;;;;;2.23;1.10;;;10.00;99.90;;;;;;5072688;28;20260;-66
2022/10/25 03:19:32;;;;;;;4.53;1.93;;;9.90;99.90;;;;;;5072009;28;20537;-66
2022/10/25 03:21:58;;;;;;;4.37;1.77;;;9.90;99.90;;;;;;5072273;28;20419;-66
2022/10/25 03:24:23;;;;;;;4.70;1.10;;;9.90;99.90;;;;;;5071465;28;20669;-66
2022/10/25 03:26:49;;;;;;;2.57;1.40;;;9.90;99.90;;;;;;5072466;28;20184;-66
2022/10/25 03:29:14;;;;;;;2.43;1.30;;;9.90;99.90;;;;;;5072552;28;20251;-66
2022/10/25 03:31:40;;;;;;;2.23;1.03;;;9.90;99.90;;;;;;5062083;28;20182;-66
2022/10/25 03:34:06;;;;;;;3.97;1.20;;;9.90;99.90;;;;;;5067812;28;20204;-66
2022/10/25 03:36:31;;;;;;;4.03;1.63;;;9.90;99.90;;;;;;5065229;28;20169;-66
2022/10/25 03:38:57;;;;;;;3.70;1.43;;;9.90;99.90;;;;;;5067424;28;20182;-66
2022/10/25 03:41:22;;;;;;;3.83;1.40;;;9.80;99.90;;;;;;5071833;28;20231;-66
2022/10/25 03:43:48;;;;;;;2.17;1.33;;;9.80;99.90;;;;;;5071177;28;20200;-66
2022/10/25 03:46:14;;;;;;;6.30;1.33;;;9.90;99.90;;;;;;5072098;28;20200;-66
2022/10/25 03:48:39;;;;;;;3.50;1.40;;;9.80;99.90;;;;;;5071953;28;20236;-66
2022/10/25 03:51:05;;;;;;;3.13;1.30;;;9.80;99.90;;;;;;5070477;28;20192;-66
2022/10/25 03:53:31;;;;;;;4.17;1.27;;;9.80;99.90;;;;;;5071691;28;20211;-66
2022/10/25 03:55:56;;;;;;;4.83;1.57;;;9.80;99.90;;;;;;5072402;28;20173;-66
2022/10/25 03:58:22;;;;;;;1.60;1.10;;;9.80;99.90;;;;;;5071770;28;20185;-66
2022/10/25 04:00:47;;;;;;;2.20;1.00;;;9.70;99.90;;;;;;5071842;28;20528;-66
2022/10/25 04:03:13;;;;;;;8.20;1.33;;;9.70;99.90;;;;;;5070963;28;20185;-66
2022/10/25 04:05:39;;;;;;;4.33;1.60;;;9.70;99.90;;;;;;5071866;28;20272;-66
2022/10/25 04:08:05;;;;;;;2.77;1.53;;;9.70;99.90;;;;;;5071785;28;20216;-66
2022/10/25 04:10:30;;;;;;;2.47;1.20;;;9.60;99.90;;;;;;5071604;28;20267;-66
2022/10/25 04:12:56;;;;;;;2.57;1.30;;;9.60;99.90;;;;;;5070810;28;20518;-66
2022/10/25 04:15:23;;;;;;;1.53;0.80;;;9.60;99.90;;;;;;5071261;28;20201;-66
2022/10/25 04:17:49;;;;;;;5.10;1.33;;;9.60;99.90;;;;;;5071466;28;20251;-66
2022/10/25 04:20:15;;;;;;;3.00;1.53;;;9.60;99.90;;;;;;5072016;28;20916;-66
2022/10/25 04:22:41;;;;;;;2.03;1.03;;;9.70;99.90;;;;;;5071244;28;20455;-66
2022/10/25 04:25:07;;;;;;;4.33;1.50;;;9.70;99.90;;;;;;5070309;28;20199;-66
2022/10/25 04:27:32;;;;;;;3.10;1.23;;;9.60;99.90;;;;;;5070472;28;20266;-66
2022/10/25 04:29:58;;;;;;;2.03;1.50;;;9.70;99.90;;;;;;5072140;28;20423;-65
2022/10/25 04:32:23;;;;;;;3.10;1.27;;;9.60;99.90;;;;;;5070740;28;20534;-66
2022/10/25 04:34:49;;;;;;;3.80;1.40;;;9.60;99.90;;;;;;5071947;28;20181;-66
2022/10/25 04:37:15;;;;;;;2.60;1.27;;;9.60;99.90;;;;;;5071247;28;20268;-66
2022/10/25 04:39:40;;;;;;;2.73;1.37;;;9.60;99.90;;;;;;5067067;28;20575;-66
2022/10/25 04:42:07;;;;;;;2.50;1.33;;;9.60;99.90;;;;;;5069412;28;20192;-66
2022/10/25 04:44:32;;;;;;;9.53;1.60;;;9.60;99.90;;;;;;5071782;28;20651;-66
2022/10/25 04:46:58;;;;;;;8.10;2.10;;;9.60;99.90;;;;;;5071155;28;20491;-66
2022/10/25 04:49:24;;;;;;;7.33;1.43;;;9.60;99.90;;;;;;5071514;28;20197;-66
2022/10/25 04:51:49;;;;;;;6.40;1.70;;;9.60;99.90;;;;;;5072378;28;20189;-65
2022/10/25 04:54:15;;;;;;;3.67;1.60;;;9.60;99.90;;;;;;5075550;28;20181;-66
2022/10/25 04:56:40;;;;;;;3.53;1.40;;;9.50;99.90;;;;;;5074819;28;20622;-66
2022/10/25 04:59:07;;;;;;;2.40;1.40;;;9.50;99.90;;;;;;5075435;28;20192;-66
2022/10/25 05:01:33;;;;;;;13.63;2.20;;;9.50;99.90;;;;;;5074856;28;20173;-66
2022/10/25 05:03:58;;;;;;;2.40;1.47;;;9.50;99.90;;;;;;5075026;28;20899;-66
2022/10/25 05:06:26;;;;;;;3.77;1.60;;;9.50;99.90;;;;;;5075348;28;20231;-66
2022/10/25 05:08:53;;;;;;;3.63;1.77;;;9.50;99.90;;;;;;5075220;28;20564;-66
2022/10/25 05:11:21;;;;;;;2.67;1.60;;;9.50;99.90;;;;;;5074462;28;20407;-66
2022/10/25 05:13:47;;;;;;;2.70;1.13;;;9.50;99.90;;;;;;5067758;28;20444;-66
2022/10/25 05:16:19;;;;;;;28.60;2.17;;;9.50;99.90;;;;;;5073625;28;20422;-66
2022/10/25 05:18:44;;;;;;;4.70;1.37;;;9.50;99.90;;;;;;5074592;28;20414;-66
2022/10/25 05:21:10;;;;;;;3.50;1.43;;;9.50;99.90;;;;;;5075129;28;20887;-66
2022/10/25 05:23:36;;;;;;;5.27;2.00;;;9.50;99.90;;;;;;5073252;28;20200;-65
2022/10/25 05:26:10;;;;;;;3.77;1.87;;;9.50;99.90;;;;;;5075229;28;20432;-65
2022/10/25 05:28:37;;;;;;;3.10;1.63;;;9.50;99.90;;;;;;5074784;28;20254;-66
2022/10/25 05:31:05;;;;;;;2.03;1.17;;;9.50;99.90;;;;;;5071349;28;20433;-66
2022/10/25 05:33:31;;;;;;;2.13;1.37;;;9.40;99.90;;;;;;5064221;28;20497;-66
2022/10/25 05:35:59;;;;;;;9.23;1.60;;;9.50;99.90;;;;;;5073271;28;20422;-66
2022/10/25 05:38:25;;;;;;;3.13;1.53;;;9.50;99.90;;;;;;5073409;28;20419;-66
2022/10/25 05:40:55;;;;;;;3.10;1.40;;;9.40;99.90;;;;;;5068508;28;20800;-66
2022/10/25 05:43:21;;;;;;;3.17;1.80;;;9.40;99.90;;;;;;5071311;28;20435;-66
2022/10/25 05:45:47;;;;;;;2.97;1.13;;;9.40;99.90;;;;;;5073703;28;20454;-66
2022/10/25 05:48:12;;;;;;;3.27;1.70;;;9.40;99.90;;;;;;5072709;28;20486;-66
2022/10/25 05:50:38;;;;;;;3.30;1.43;;;9.40;99.90;;;;;;5072224;28;20189;-66
2022/10/25 05:53:04;;;;;;;2.10;1.07;;;9.40;99.90;;;;;;5073310;28;20177;-66
2022/10/25 05:55:29;;;;;;;3.47;1.27;;;9.30;99.90;;;;;;5074127;28;20185;-66
2022/10/25 05:57:55;;;;;;;7.47;1.90;;;9.30;99.90;;;;;;5073749;28;20194;-66
2022/10/25 06:00:20;;;;;;;8.70;1.83;;;9.20;99.90;;;;;;5075181;28;20264;-66
2022/10/25 06:02:46;;;;;;;1.93;1.20;;;9.30;99.90;;;;;;5077213;28;20200;-66
2022/10/25 06:05:12;;;;;;;2.90;1.33;;;9.30;99.90;;;;;;5078752;28;20519;-66
2022/10/25 06:07:37;;;;;;;5.00;1.77;;;9.30;99.90;;;;;;5083957;28;20204;-66
2022/10/25 06:10:03;;;;;;;6.77;1.80;;;9.40;99.90;;;;;;5091344;28;20181;-65
2022/10/25 06:12:29;;;;;;;2.10;1.23;;;9.40;99.90;;;;;;5090171;28;20182;-66
2022/10/25 06:14:54;;;;;;;1.80;1.13;;;9.40;99.90;;;;;;5083367;28;20880;-66
2022/10/25 06:17:20;;;;;;;4.00;1.50;;;9.40;99.90;;;;;;5060087;28;20209;-65
2022/10/25 06:19:45;;;;;;;2.97;1.37;;;9.40;99.90;;;;;;5072602;28;20181;-66
2022/10/25 06:22:11;;;;;;;4.27;1.63;;;9.40;99.90;;;;;;5072251;28;20177;-65
2022/10/25 06:24:37;;;;;;;2.60;1.03;;;9.50;99.90;;;;;;5059007;28;20181;-66
2022/10/25 06:27:03;;;;;;;3.57;1.20;;;9.50;99.90;;;;;;5072071;28;20226;-66
2022/10/25 06:29:28;;;;;;;2.00;1.00;;;9.50;99.90;;;;;;5072053;28;20228;-66
2022/10/25 06:31:54;;;;;;;2.30;1.13;;;9.50;99.90;;;;;;5071680;28;20216;-65
2022/10/25 06:34:19;;;;;;;3.83;1.47;;;9.60;99.90;;;;;;5072160;28;20200;-66
2022/10/25 06:36:45;;;;;;;2.87;1.63;;;9.60;99.90;;;;;;5072145;28;20263;-65
2022/10/25 06:39:11;;;;;;;7.23;2.23;;;9.60;99.90;;;;;;5067428;28;20198;-67
2022/10/25 06:41:36;;;;;;;17.13;2.10;;;9.60;99.90;;;;;;5072822;28;20193;-66
2022/10/25 06:44:02;;;;;;;2.80;1.20;;;9.60;99.90;;;;;;5072402;28;20289;-67
2022/10/25 06:46:32;;;;;;;4.23;1.70;;;9.60;99.90;;;;;;5073334;28;20189;-67
2022/10/25 06:48:59;;;;;;;4.33;1.90;;;9.60;99.90;;;;;;5072923;28;20216;-67
2022/10/25 06:51:26;;;;;;;7.90;2.47;;;9.60;99.90;;;;;;5073253;28;20907;-66
2022/10/25 06:54:00;;;;;;;2.10;1.30;;;9.60;99.90;;;;;;5072424;28;20411;-65
2022/10/25 06:56:27;;;;;;;13.70;1.70;;;9.60;99.90;;;;;;5067660;28;20443;-65
2022/10/25 06:58:53;;;;;;;4.23;2.00;;;9.60;99.90;;;;;;5072628;28;20490;-65
2022/10/25 07:01:21;;;;;;;2.93;1.47;;;9.60;99.90;;;;;;5072955;28;20918;-65
2022/10/25 07:03:49;;;;;;;2.20;1.50;;;9.60;99.90;;;;;;5072410;28;20430;-65
2022/10/25 07:06:25;;;;;;;2.27;1.57;;;9.60;99.90;;;;;;5072923;28;20427;-65
2022/10/25 07:08:55;;;;;;;4.30;1.57;;;9.60;99.90;;;;;;5073099;28;20591;-66
2022/10/25 07:11:23;;;;;;;2.40;1.50;;;9.70;99.90;;;;;;5072533;28;20419;-66
2022/10/25 07:13:49;;;;;;;3.87;1.40;;;9.80;99.90;;;;;;5071230;28;20423;-66
2022/10/25 07:16:17;;;;;;;3.47;1.43;;;9.80;99.90;;;;;;5072683;28;20897;-66
2022/10/25 07:18:43;;;;;;;4.10;1.70;;;9.90;99.90;;;;;;5072532;28;20173;-66
2022/10/25 07:21:14;;;;;;;3.37;1.03;;;10.00;99.90;;;;;;5072517;28;20439;-66
2022/10/25 07:23:41;;;;;;;3.80;1.60;;;10.10;99.90;;;;;;5071082;28;20461;-66
2022/10/25 07:26:19;;;;;;;3.70;2.10;;;10.20;99.90;;;;;;5072755;28;20458;-66
2022/10/25 07:28:47;;;;;;;3.33;1.10;;;10.30;99.90;;;;;;5075648;28;20466;-66
2022/10/25 07:31:18;;;;;;;4.00;1.43;;;10.40;99.90;;;;;;5072425;28;20506;-66
2022/10/25 07:33:44;;;;;;;1.90;0.93;;;10.50;99.90;;;;;;5071431;28;20430;-64
2022/10/25 07:36:09;;;;;;;4.70;1.37;;;10.60;99.90;;;;;;5072432;28;20416;-64
2022/10/25 07:38:35;;;;;;;2.90;1.40;;;10.80;99.90;;;;;;5070993;28;20185;-64
2022/10/25 07:41:01;;;;;;;2.43;1.10;;;10.90;99.90;;;;;;5060470;28;20181;-64
2022/10/25 07:43:27;;;;;;;5.90;1.23;;;11.20;99.90;;;;;;5067488;28;20189;-64
2022/10/25 07:45:53;;;;;;;1.80;0.90;;;11.40;99.90;;;;;;5057241;28;20232;-64
2022/10/25 07:48:21;;;;;;;1.83;1.13;;;11.50;99.90;;;;;;5074033;28;20493;-69
2022/10/25 07:50:47;;;;;;;1.70;0.87;;;11.60;99.90;;;;;;5070821;28;20987;-69
2022/10/25 07:53:12;;;;;;;2.30;1.00;;;11.80;99.90;;;;;;5071267;28;20506;-68
2022/10/25 07:55:38;;;;;;;2.13;0.77;;;12.00;99.90;;;;;;5054222;28;20184;-69
2022/10/25 07:58:05;;;;;;;1.97;0.93;;;12.10;99.90;;;;;;5071355;28;20185;-64
2022/10/25 08:00:33;;;;;;;2.63;0.93;;;12.30;99.90;;;;;;5068642;28;20195;-65
2022/10/25 08:02:59;;;;;;;4.20;0.73;;;12.50;99.90;;;;;;5069306;28;20458;-65
2022/10/25 08:05:24;;;;;;;1.57;0.70;;;12.90;99.90;;;;;;5071139;28;20513;-65
2022/10/25 08:07:50;;;;;;;7.13;1.07;;;13.20;99.90;;;;;;5066610;28;20208;-65
2022/10/25 08:10:19;;;;;;;1.30;0.63;;;13.60;99.90;;;;;;5070667;28;20177;-64
2022/10/25 08:12:45;;;;;;;2.57;0.80;;;13.70;99.90;;;;;;5069627;28;20177;-65
2022/10/25 08:15:11;;;;;;;4.40;1.03;;;14.00;99.90;;;;;;5070193;28;20502;-64
2022/10/25 08:17:36;;;;;;;1.63;0.60;;;14.20;99.90;;;;;;5071226;28;20539;-64
2022/10/25 08:20:02;;;;;;;3.60;0.97;;;14.60;99.90;;;;;;5069241;28;20192;-65
2022/10/25 08:22:28;;;;;;;4.30;1.30;;;14.80;99.90;;;;;;5069861;28;20208;-65
2022/10/25 08:24:53;;;;;;;3.20;1.37;;;14.80;99.90;;;;;;5069213;28;20181;-65
2022/10/25 08:27:19;;;;;;;3.20;0.90;;;15.00;99.90;;;;;;5069600;28;20246;-65
2022/10/25 08:29:45;;;;;;;1.97;0.80;;;15.10;99.90;;;;;;5070278;28;20902;-65
2022/10/25 08:32:10;;;;;;;3.30;0.87;;;14.90;99.90;;;;;;5069596;28;20660;-64
2022/10/25 08:34:36;;;;;;;2.37;0.90;;;14.70;99.90;;;;;;5065309;28;20189;-64
2022/10/25 08:37:02;;;;;;;1.80;0.80;;;14.60;99.90;;;;;;5069950;28;20177;-64
2022/10/25 08:39:27;;;;;;;2.70;0.87;;;14.60;99.90;;;;;;5066406;28;20427;-65
2022/10/25 08:42:00;;;;;;;1.97;0.93;;;14.60;99.90;;;;;;5063689;28;20207;-65
2022/10/25 08:44:47;;;;;;;2.27;0.87;;;14.50;99.90;;;;;;5070244;28;20641;-65
2022/10/25 08:47:26;;;;;;;2.73;1.13;;;14.60;99.90;;;;;;5069926;28;20427;-65
2022/10/25 08:50:00;;;;;;;4.30;1.13;;;14.50;99.90;;;;;;5070164;28;20411;-65
2022/10/25 08:52:43;;;;;;;1.80;0.70;;;14.50;99.90;;;;;;5069375;28;20473;-65
2022/10/25 08:55:16;;;;;;;1.50;0.60;;;14.20;99.90;;;;;;5069849;28;20423;-65
2022/10/25 08:57:45;;;;;;;1.87;0.90;;;14.10;99.90;;;;;;5069685;28;20415;-65
2022/10/25 09:00:21;;;;;;;3.27;0.80;;;13.90;99.90;;;;;;5069827;28;20454;-65
2022/10/25 09:02:58;;;;;;;5.53;0.90;;;13.70;99.90;;;;;;5069476;28;20512;-65
2022/10/25 09:05:40;;;;;;;1.20;0.50;;;14.30;99.90;;;;;;5070904;28;20476;-65
2022/10/25 09:08:24;;;;;;;5.07;1.70;;;13.50;99.90;;;;;;5073371;28;20830;-65
2022/10/25 09:11:21;;;;;;;1.37;0.70;;;13.50;99.90;;;;;;5068580;28;20410;-65
2022/10/25 09:14:09;;;;;;;2.00;0.80;;;13.40;99.90;;;;;;5079416;28;20437;-70
2022/10/25 09:16:58;;;;;;;4.33;1.33;;;13.30;99.90;;;;;;5067633;28;20440;-70
2022/10/25 09:20:02;;;;;;;3.63;0.83;;;13.50;99.90;;;;;;5067958;28;20468;-70
2022/10/25 09:22:44;;;;;;;5.53;1.20;;;13.30;99.90;;;;;;5067429;28;20416;-70
2022/10/25 09:25:37;;;;;;;8.10;1.17;;;13.30;99.90;;;;;;5066701;28;20966;-69
2022/10/25 09:28:17;;;;;;;6.40;0.97;;;13.40;99.90;;;;;;5069700;28;20458;-70
2022/10/25 09:30:43;;;;;;;9.93;1.37;;;13.40;99.90;;;;;;5071490;28;20422;-70
2022/10/25 09:33:15;;;;;;;7.03;1.57;;;13.50;99.90;;;;;;5070287;28;20424;-70
2022/10/25 09:35:45;;;;;;;3.20;0.80;;;13.50;99.90;;;;;;5072569;28;20181;-69
2022/10/25 09:38:22;;;;;;;6.40;0.80;;;13.60;99.90;;;;;;5080878;28;20506;-71
2022/10/25 09:41:02;;;;;;;1.20;0.50;;;14.10;99.90;;;;;;5080584;28;20819;-70
2022/10/25 09:44:08;;;;;;;3.53;1.27;;;14.70;99.90;;;;;;5067708;28;20489;-69
2022/10/25 09:46:36;;;;;;;2.73;0.90;;;13.80;99.90;;;;;;5005375;28;20441;-69
2022/10/25 09:49:42;;;;;;;1.47;0.57;;;13.90;99.90;;;;;;5054540;28;20470;-70
2022/10/25 09:52:41;;;;;;;1.90;1.10;;;14.00;99.90;;;;;;5011641;28;20456;-70
2022/10/25 09:55:44;;;;;;;3.30;0.80;;;14.20;99.90;;;;;;5070551;28;20537;-69
2022/10/25 09:58:26;;;;;;;1.60;0.77;;;14.20;99.90;;;;;;5055911;28;20534;-69
2022/10/25 10:00:56;;;;;;;1.70;0.70;;;14.40;99.90;;;;;;5050011;28;20774;-71
2022/10/25 10:03:26;;;;;;;2.90;1.17;;;14.50;99.90;;;;;;5070513;28;20827;-70
2022/10/25 10:06:01;;;;;;;1.53;0.60;;;14.60;99.90;;;;;;5074386;28;20408;-70
2022/10/25 10:08:28;;;;;;;2.13;0.70;;;;;;;;;;5073921;28;20497;-70
2022/10/25 10:10:55;;;;;;;1.30;0.60;;;14.80;99.90;;;;;;5074405;28;20415;-69
2022/10/25 10:13:41;;;;;;;1.97;0.60;;;14.90;99.90;;;;;;5065766;28;20934;-70
2022/10/25 10:16:26;;;;;;;3.97;0.83;;;15.00;99.90;;;;;;5074047;28;20862;-70
2022/10/25 10:19:11;;;;;;;1.57;0.80;;;15.10;99.90;;;;;;5073913;28;20763;-70
2022/10/25 10:21:42;;;;;;;1.97;0.70;;;15.30;99.90;;;;;;5073603;28;20502;-70
2022/10/25 10:24:35;;;;;;;1.50;0.70;;;15.40;99.90;;;;;;5073369;28;20462;-70
2022/10/25 10:27:23;;;;;;;6.60;0.97;;;15.50;99.90;;;;;;5072826;28;20431;-70
2022/10/25 10:30:08;;;;;;;2.40;0.93;;;15.50;99.90;;;;;;5055729;28;20518;-70
2022/10/25 10:32:36;;;;;;;2.20;0.87;;;15.70;99.90;;;;;;5072931;28;20411;-70
2022/10/25 10:35:05;;;;;;;3.10;1.03;;;15.70;99.90;;;;;;5073733;28;20904;-70
2022/10/25 10:37:32;;;;;;;4.13;1.00;;;15.90;99.90;;;;;;5070171;28;20941;-70
2022/10/25 10:40:01;;;;;;;8.73;1.20;;;15.90;99.90;;;;;;5063072;28;21011;-70
2022/10/25 10:42:36;;;;;;;3.40;0.80;;;16.10;99.90;;;;;;5064387;28;20795;-66
2022/10/25 10:45:14;;;;;;;2.10;0.80;;;16.20;99.90;;;;;;5067822;28;20417;-66
2022/10/25 10:47:49;;;;;;;1.80;0.80;;;16.30;99.90;;;;;;5082022;28;20545;-66
2022/10/25 10:50:24;;;;;;;1.40;0.50;;;16.30;99.90;;;;;;5073336;28;20863;-65
2022/10/25 10:53:01;;;;;;;1.40;0.50;;;16.40;99.90;;;;;;5073023;28;20415;-66
2022/10/25 10:55:42;;;;;;;1.80;0.77;;;16.50;99.90;;;;;;5073565;28;20414;-66
2022/10/25 10:58:23;;;;;;;4.03;1.23;;;16.60;99.90;;;;;;5054984;28;20427;-66
2022/10/25 11:00:57;;;;;;;1.93;0.70;;;16.80;99.90;;;;;;5073090;28;20419;-66
2022/10/25 11:03:40;;;;;;;2.83;1.17;;;16.90;99.90;;;;;;5060615;28;20930;-65
2022/10/25 11:06:15;;;;;;;1.50;0.70;;;17.00;99.90;;;;;;5070761;28;20455;-66
2022/10/25 11:08:42;;;;;;;1.63;0.67;;;17.10;99.90;;;;;;5073057;28;20489;-66
2022/10/25 11:11:20;;;;;;;5.50;1.13;;;17.20;99.90;;;;;;5072877;28;20447;-66
2022/10/25 11:14:12;;;;;;;1.40;0.70;;;17.30;99.90;;;;;;5072661;28;20419;-66
2022/10/25 11:16:47;;;;;;;3.40;0.63;;;17.20;99.90;;;;;;5072850;28;20411;-66
2022/10/25 11:19:35;;;;;;;2.57;0.80;;;17.20;99.90;;;;;;5071622;28;20433;-66
2022/10/25 11:22:20;;;;;;;5.43;1.20;;;17.50;99.90;;;;;;5061983;28;20834;-66
2022/10/25 11:24:58;;;;;;;2.40;0.90;;;17.80;99.90;;;;;;5072049;28;20415;-66
2022/10/25 11:27:49;;;;;;;1.87;0.70;;;17.80;99.90;;;;;;5071959;28;20420;-66
2022/10/25 11:30:18;;;;;;;3.00;0.77;;;18.00;99.90;;;;;;5069809;28;20423;-66
2022/10/25 11:33:24;;;;;;;1.70;0.87;;;17.90;99.90;;;;;;5072054;28;20419;-65
2022/10/25 11:36:27;;;;;;;1.90;0.67;;;17.90;99.90;;;;;;5073088;28;20441;-66
2022/10/25 11:39:15;;;;;;;5.53;1.27;;;18.00;99.90;;;;;;5073459;28;20460;-66
2022/10/25 11:41:46;;;;;;;1.80;0.70;;;18.10;99.90;;;;;;5064772;28;20427;-65
2022/10/25 11:44:23;;;;;;;1.90;0.80;;;18.20;99.90;;;;;;5080003;28;20455;-65
2022/10/25 11:47:26;;;;;;;2.43;0.90;;;18.30;99.90;;;;;;5077811;28;20422;-65
2022/10/25 11:50:10;;;;;;;1.83;0.70;;;18.30;99.90;;;;;;5091798;28;20426;-65
2022/10/25 11:52:45;;;;;;;1.50;0.63;;;18.30;99.90;;;;;;5081179;28;20435;-66
2022/10/25 11:55:20;;;;;;;1.70;0.83;;;18.40;99.90;;;;;;5093162;28;20445;-65
2022/10/25 11:58:03;;;;;;;1.40;0.50;;;18.40;99.90;;;;;;5092887;28;20415;-65
2022/10/25 12:00:53;;;;;;;3.00;0.77;;;18.50;99.90;;;;;;5074795;28;20469;-66
2022/10/25 12:03:50;;;;;;;3.00;1.00;;;18.80;99.90;;;;;;5075621;28;20415;-66
2022/10/25 12:06:53;;;;;;;1.50;0.60;;;18.80;99.90;;;;;;5078755;28;20411;-66
2022/10/25 12:09:39;;;;;;;1.30;0.50;;;19.00;99.90;;;;;;5071987;28;20498;-66
2022/10/25 12:12:10;;;;;;;11.00;0.77;;;18.80;99.90;;;;;;5071335;28;20942;-66
2022/10/25 12:14:39;;;;;;;2.10;0.70;;;18.80;99.90;;;;;;5071970;28;20416;-66
2022/10/25 12:17:23;;;;;;;4.60;0.80;;;18.90;99.90;;;;;;5072289;28;20936;-66
2022/10/25 12:19:51;;;;;;;2.10;0.90;;;18.80;99.90;;;;;;5071120;28;20430;-66
2022/10/25 12:22:25;;;;;;;1.80;0.70;;;18.80;99.90;;;;;;5071970;28;20439;-66
2022/10/25 12:25:17;;;;;;;1.70;0.70;;;18.90;99.90;;;;;;5071442;28;20730;-66
2022/10/25 12:27:47;;;;;;;14.63;0.93;;;19.00;99.90;;;;;;5071364;28;20878;-66
2022/10/25 12:30:15;;;;;;;6.40;0.80;;;18.80;99.90;;;;;;5072110;28;20419;-66
2022/10/25 12:32:49;;;;;;;2.60;0.80;;;18.80;99.90;;;;;;5071237;28;20473;-66
2022/10/25 12:35:28;;;;;;;1.70;0.70;;;18.80;99.90;;;;;;5071333;28;20845;-66
2022/10/25 12:37:57;;;;;;;1.50;0.60;;;18.80;99.90;;;;;;5071485;28;20806;-66
2022/10/25 12:40:24;;;;;;;1.50;0.60;;;18.80;99.90;;;;;;5068452;28;20424;-66
2022/10/25 12:42:58;;;;;;;2.63;0.93;;;18.70;99.90;;;;;;5063148;28;20478;-66
2022/10/25 12:45:48;;;;;;;1.30;0.50;;;18.60;99.60;;;;;;5069646;28;20411;-66
2022/10/25 12:48:43;;;;;;;5.00;0.70;;;18.50;99.80;;;;;;5062521;28;20460;-66
2022/10/25 12:51:27;;;;;;;1.93;0.70;;;18.40;99.80;;;;;;5054491;28;20416;-66
2022/10/25 12:54:23;;;;;;;1.93;0.67;;;18.50;99.20;;;;;;5059935;28;20408;-66
2022/10/25 12:57:01;;;;;;;1.60;0.60;;;18.50;98.50;;;;;;5070504;28;20469;-66
2022/10/25 12:59:48;;;;;;;1.67;0.60;;;18.50;98.30;;;;;;5071367;28;20419;-66
2022/10/25 13:02:32;;;;;;;1.90;0.63;;;18.40;99.20;;;;;;5071000;28;20488;-66
2022/10/25 13:05:16;;;;;;;1.93;0.80;;;18.30;99.50;;;;;;5070591;28;20502;-66
2022/10/25 13:07:42;;;;;;;2.53;0.70;;;18.30;99.90;;;;;;5071233;28;20541;-66
2022/10/25 13:10:22;;;;;;;1.83;0.73;;;18.30;99.10;;;;;;5071446;28;20415;-66
2022/10/25 13:13:15;;;;;;;1.40;0.60;;;18.30;99.90;;;;;;5071818;28;20414;-66
2022/10/25 13:15:46;;;;;;;1.67;0.70;;;18.30;99.60;;;;;;5075044;28;20408;-66
2022/10/25 13:18:38;;;;;;;1.80;0.87;;;18.20;99.10;;;;;;5074106;28;20411;-66
2022/10/25 13:21:07;;;;;;;1.87;0.60;;;18.20;98.70;;;;;;5074732;28;20460;-66